sensor_id;sensor_type;location;lat;lon;timestamp;P1;durP1;ratioP1;P2;durP2;ratioP2
14187;SDS011;7175;51.978;5.330;2022-07-24T00:04:31;20.83;;;19.43;;
14187;SDS011;7175;51.978;5.330;2022-07-24T00:07:19;21.00;;;19.60;;
14187;SDS011;7175;51.978;5.330;2022-07-24T00:10:00;20.77;;;19.37;;
14187;SDS011;7175;51.978;5.330;2022-07-24T00:18:51;21.50;;;19.97;;
14187;SDS011;7175;51.978;5.330;2022-07-24T00:21:26;21.30;;;19.90;;
14187;SDS011;7175;51.978;5.330;2022-07-24T00:23:59;20.63;;;19.23;;
14187;SDS011;7175;51.978;5.330;2022-07-24T00:30:26;20.83;;;19.43;;
14187;SDS011;7175;51.978;5.330;2022-07-24T00:36:43;20.70;;;19.30;;
14187;SDS011;7175;51.978;5.330;2022-07-24T00:51:14;21.87;;;20.37;;
14187;SDS011;7175;51.978;5.330;2022-07-24T00:53:58;20.40;;;19.00;;
14187;SDS011;7175;51.978;5.330;2022-07-24T00:56:34;20.77;;;19.33;;
14187;SDS011;7175;51.978;5.330;2022-07-24T01:06:39;20.57;;;19.17;;
14187;SDS011;7175;51.978;5.330;2022-07-24T01:09:22;19.63;;;18.33;;
14187;SDS011;7175;51.978;5.330;2022-07-24T01:18:18;20.20;;;18.80;;
14187;SDS011;7175;51.978;5.330;2022-07-24T01:23:52;20.50;;;19.10;;
14187;SDS011;7175;51.978;5.330;2022-07-24T01:26:21;20.47;;;19.07;;
14187;SDS011;7175;51.978;5.330;2022-07-24T01:28:49;21.13;;;19.73;;
14187;SDS011;7175;51.978;5.330;2022-07-24T01:31:17;21.57;;;20.07;;
14187;SDS011;7175;51.978;5.330;2022-07-24T01:33:46;21.47;;;19.97;;
14187;SDS011;7175;51.978;5.330;2022-07-24T01:45:25;19.83;;;18.53;;
14187;SDS011;7175;51.978;5.330;2022-07-24T01:51:41;20.90;;;19.50;;
14187;SDS011;7175;51.978;5.330;2022-07-24T01:54:23;20.90;;;19.50;;
14187;SDS011;7175;51.978;5.330;2022-07-24T01:56:54;20.47;;;19.17;;
14187;SDS011;7175;51.978;5.330;2022-07-24T01:59:37;21.20;;;19.80;;
14187;SDS011;7175;51.978;5.330;2022-07-24T02:02:12;21.70;;;20.20;;
14187;SDS011;7175;51.978;5.330;2022-07-24T02:04:46;22.57;;;21.07;;
14187;SDS011;7175;51.978;5.330;2022-07-24T02:07:14;23.13;;;21.63;;
14187;SDS011;7175;51.978;5.330;2022-07-24T02:09:43;22.30;;;20.80;;
14187;SDS011;7175;51.978;5.330;2022-07-24T02:12:13;23.73;;;22.13;;
14187;SDS011;7175;51.978;5.330;2022-07-24T02:17:45;22.40;;;20.90;;
14187;SDS011;7175;51.978;5.330;2022-07-24T02:20:22;21.90;;;20.47;;
14187;SDS011;7175;51.978;5.330;2022-07-24T02:22:50;23.23;;;21.20;;
14187;SDS011;7175;51.978;5.330;2022-07-24T02:25:19;22.90;;;21.30;;
14187;SDS011;7175;51.978;5.330;2022-07-24T02:28:01;22.90;;;21.30;;
14187;SDS011;7175;51.978;5.330;2022-07-24T02:36:38;23.50;;;21.93;;
14187;SDS011;7175;51.978;5.330;2022-07-24T02:39:18;24.00;;;22.40;;
14187;SDS011;7175;51.978;5.330;2022-07-24T02:47:49;25.40;;;23.70;;
14187;SDS011;7175;51.978;5.330;2022-07-24T02:56:19;24.73;;;23.10;;
14187;SDS011;7175;51.978;5.330;2022-07-24T02:59:02;23.73;;;22.13;;
14187;SDS011;7175;51.978;5.330;2022-07-24T03:04:56;24.70;;;23.10;;
14187;SDS011;7175;51.978;5.330;2022-07-24T03:07:31;24.50;;;22.80;;
14187;SDS011;7175;51.978;5.330;2022-07-24T03:10:15;27.07;;;24.77;;
14187;SDS011;7175;51.978;5.330;2022-07-24T03:12:59;26.10;;;24.27;;
14187;SDS011;7175;51.978;5.330;2022-07-24T03:15:40;24.23;;;22.60;;
14187;SDS011;7175;51.978;5.330;2022-07-24T03:18:15;24.40;;;22.70;;
14187;SDS011;7175;51.978;5.330;2022-07-24T03:21:04;26.07;;;24.37;;
14187;SDS011;7175;51.978;5.330;2022-07-24T03:33:00;27.23;;;25.23;;
14187;SDS011;7175;51.978;5.330;2022-07-24T03:40:55;26.97;;;25.10;;
14187;SDS011;7175;51.978;5.330;2022-07-24T03:43:36;27.20;;;25.40;;
14187;SDS011;7175;51.978;5.330;2022-07-24T03:46:19;29.23;;;27.27;;
14187;SDS011;7175;51.978;5.330;2022-07-24T03:54:27;29.00;;;27.10;;
14187;SDS011;7175;51.978;5.330;2022-07-24T03:56:59;31.70;;;29.60;;
14187;SDS011;7175;51.978;5.330;2022-07-24T04:02:23;29.30;;;27.20;;
14187;SDS011;7175;51.978;5.330;2022-07-24T04:13:57;30.43;;;28.43;;
14187;SDS011;7175;51.978;5.330;2022-07-24T04:16:31;31.57;;;29.27;;
14187;SDS011;7175;51.978;5.330;2022-07-24T04:19:00;32.30;;;29.63;;
14187;SDS011;7175;51.978;5.330;2022-07-24T04:21:33;32.20;;;30.10;;
14187;SDS011;7175;51.978;5.330;2022-07-24T04:24:10;31.67;;;29.43;;
14187;SDS011;7175;51.978;5.330;2022-07-24T04:29:40;29.73;;;27.63;;
14187;SDS011;7175;51.978;5.330;2022-07-24T04:32:08;31.10;;;29.00;;
14187;SDS011;7175;51.978;5.330;2022-07-24T04:44:35;36.83;;;34.43;;
14187;SDS011;7175;51.978;5.330;2022-07-24T04:50:50;38.33;;;35.83;;
14187;SDS011;7175;51.978;5.330;2022-07-24T04:59:13;39.00;;;36.50;;
14187;SDS011;7175;51.978;5.330;2022-07-24T05:07:51;34.40;;;32.07;;
14187;SDS011;7175;51.978;5.330;2022-07-24T05:14:20;32.33;;;30.13;;
14187;SDS011;7175;51.978;5.330;2022-07-24T05:16:56;32.87;;;30.57;;
14187;SDS011;7175;51.978;5.330;2022-07-24T05:23:12;34.10;;;31.80;;
14187;SDS011;7175;51.978;5.330;2022-07-24T05:25:45;34.20;;;31.80;;
14187;SDS011;7175;51.978;5.330;2022-07-24T05:28:22;35.90;;;33.50;;
14187;SDS011;7175;51.978;5.330;2022-07-24T05:31:04;35.63;;;33.23;;
14187;SDS011;7175;51.978;5.330;2022-07-24T05:33:50;34.70;;;32.17;;
14187;SDS011;7175;51.978;5.330;2022-07-24T05:43:30;29.73;;;27.57;;
14187;SDS011;7175;51.978;5.330;2022-07-24T05:45:59;30.40;;;28.10;;
14187;SDS011;7175;51.978;5.330;2022-07-24T05:48:27;31.03;;;28.57;;
14187;SDS011;7175;51.978;5.330;2022-07-24T05:51:07;26.47;;;24.47;;
14187;SDS011;7175;51.978;5.330;2022-07-24T05:53:43;26.80;;;24.80;;
14187;SDS011;7175;51.978;5.330;2022-07-24T06:08:38;23.50;;;21.70;;
14187;SDS011;7175;51.978;5.330;2022-07-24T06:14:54;22.30;;;20.60;;
14187;SDS011;7175;51.978;5.330;2022-07-24T06:23:55;20.23;;;18.73;;
14187;SDS011;7175;51.978;5.330;2022-07-24T06:26:27;21.63;;;19.93;;
14187;SDS011;7175;51.978;5.330;2022-07-24T06:32:09;21.40;;;19.80;;
14187;SDS011;7175;51.978;5.330;2022-07-24T06:34:46;20.40;;;18.90;;
14187;SDS011;7175;51.978;5.330;2022-07-24T06:37:15;19.73;;;18.23;;
14187;SDS011;7175;51.978;5.330;2022-07-24T06:39:46;20.00;;;18.50;;
14187;SDS011;7175;51.978;5.330;2022-07-24T06:42:15;21.20;;;19.33;;
14187;SDS011;7175;51.978;5.330;2022-07-24T06:48:06;23.23;;;19.23;;
14187;SDS011;7175;51.978;5.330;2022-07-24T06:53:29;20.53;;;18.93;;
14187;SDS011;7175;51.978;5.330;2022-07-24T06:56:08;19.20;;;17.80;;
14187;SDS011;7175;51.978;5.330;2022-07-24T06:58:49;19.30;;;17.90;;
14187;SDS011;7175;51.978;5.330;2022-07-24T07:04:30;19.43;;;17.93;;
14187;SDS011;7175;51.978;5.330;2022-07-24T07:22:31;21.00;;;19.40;;
14187;SDS011;7175;51.978;5.330;2022-07-24T07:25:00;19.80;;;18.30;;
14187;SDS011;7175;51.978;5.330;2022-07-24T07:27:44;19.50;;;18.00;;
14187;SDS011;7175;51.978;5.330;2022-07-24T07:30:22;20.13;;;18.63;;
14187;SDS011;7175;51.978;5.330;2022-07-24T07:32:54;19.30;;;17.90;;
14187;SDS011;7175;51.978;5.330;2022-07-24T07:38:39;19.60;;;18.10;;
14187;SDS011;7175;51.978;5.330;2022-07-24T07:41:16;21.07;;;19.47;;
14187;SDS011;7175;51.978;5.330;2022-07-24T07:46:29;20.10;;;18.60;;
14187;SDS011;7175;51.978;5.330;2022-07-24T07:52:38;19.97;;;18.47;;
14187;SDS011;7175;51.978;5.330;2022-07-24T07:58:10;20.83;;;19.10;;
14187;SDS011;7175;51.978;5.330;2022-07-24T08:00:40;20.57;;;19.03;;
14187;SDS011;7175;51.978;5.330;2022-07-24T08:03:10;20.00;;;18.50;;
14187;SDS011;7175;51.978;5.330;2022-07-24T08:09:08;21.17;;;19.57;;
14187;SDS011;7175;51.978;5.330;2022-07-24T08:17:26;20.80;;;19.20;;
14187;SDS011;7175;51.978;5.330;2022-07-24T08:22:59;20.90;;;19.40;;
14187;SDS011;7175;51.978;5.330;2022-07-24T08:28:21;19.33;;;17.83;;
14187;SDS011;7175;51.978;5.330;2022-07-24T08:30:52;21.17;;;19.57;;
14187;SDS011;7175;51.978;5.330;2022-07-24T08:33:31;22.73;;;20.97;;
14187;SDS011;7175;51.978;5.330;2022-07-24T08:36:00;20.30;;;18.70;;
14187;SDS011;7175;51.978;5.330;2022-07-24T08:38:30;29.17;;;19.00;;
14187;SDS011;7175;51.978;5.330;2022-07-24T08:41:02;19.80;;;18.30;;
14187;SDS011;7175;51.978;5.330;2022-07-24T08:46:32;20.10;;;18.60;;
14187;SDS011;7175;51.978;5.330;2022-07-24T08:49:11;21.30;;;19.60;;
14187;SDS011;7175;51.978;5.330;2022-07-24T08:51:43;20.10;;;18.60;;
14187;SDS011;7175;51.978;5.330;2022-07-24T08:54:14;20.33;;;18.80;;
14187;SDS011;7175;51.978;5.330;2022-07-24T08:56:43;20.30;;;18.70;;
14187;SDS011;7175;51.978;5.330;2022-07-24T09:02:09;21.00;;;19.40;;
14187;SDS011;7175;51.978;5.330;2022-07-24T09:04:58;20.70;;;19.10;;
14187;SDS011;7175;51.978;5.330;2022-07-24T09:07:28;20.60;;;19.00;;
14187;SDS011;7175;51.978;5.330;2022-07-24T09:12:54;21.07;;;19.47;;
14187;SDS011;7175;51.978;5.330;2022-07-24T09:15:26;20.17;;;18.57;;
14187;SDS011;7175;51.978;5.330;2022-07-24T09:18:05;20.73;;;19.07;;
14187;SDS011;7175;51.978;5.330;2022-07-24T09:20:58;19.90;;;18.40;;
14187;SDS011;7175;51.978;5.330;2022-07-24T09:23:39;20.20;;;18.60;;
14187;SDS011;7175;51.978;5.330;2022-07-24T09:26:21;19.40;;;17.90;;
14187;SDS011;7175;51.978;5.330;2022-07-24T09:28:59;23.33;;;17.70;;
14187;SDS011;7175;51.978;5.330;2022-07-24T09:34:44;18.80;;;17.40;;
14187;SDS011;7175;51.978;5.330;2022-07-24T09:40:56;18.97;;;17.57;;
14187;SDS011;7175;51.978;5.330;2022-07-24T09:43:26;18.53;;;17.13;;
14187;SDS011;7175;51.978;5.330;2022-07-24T09:46:11;19.07;;;17.57;;
14187;SDS011;7175;51.978;5.330;2022-07-24T09:51:28;19.20;;;17.70;;
14187;SDS011;7175;51.978;5.330;2022-07-24T09:54:00;19.37;;;17.87;;
14187;SDS011;7175;51.978;5.330;2022-07-24T09:56:29;19.10;;;17.60;;
14187;SDS011;7175;51.978;5.330;2022-07-24T09:58:59;18.47;;;17.07;;
14187;SDS011;7175;51.978;5.330;2022-07-24T10:01:34;19.20;;;17.70;;
14187;SDS011;7175;51.978;5.330;2022-07-24T10:04:06;18.57;;;17.13;;
14187;SDS011;7175;51.978;5.330;2022-07-24T10:13:18;19.40;;;17.90;;
14187;SDS011;7175;51.978;5.330;2022-07-24T10:22:45;19.87;;;18.27;;
14187;SDS011;7175;51.978;5.330;2022-07-24T10:29:32;19.10;;;17.60;;
14187;SDS011;7175;51.978;5.330;2022-07-24T10:35:32;19.20;;;17.70;;
14187;SDS011;7175;51.978;5.330;2022-07-24T10:41:13;19.23;;;17.73;;
14187;SDS011;7175;51.978;5.330;2022-07-24T10:47:36;18.60;;;17.20;;
14187;SDS011;7175;51.978;5.330;2022-07-24T10:53:49;19.10;;;17.60;;
14187;SDS011;7175;51.978;5.330;2022-07-24T10:56:37;18.70;;;17.30;;
14187;SDS011;7175;51.978;5.330;2022-07-24T10:59:32;18.27;;;16.87;;
14187;SDS011;7175;51.978;5.330;2022-07-24T11:11:22;18.60;;;17.20;;
14187;SDS011;7175;51.978;5.330;2022-07-24T11:14:01;18.97;;;17.57;;
14187;SDS011;7175;51.978;5.330;2022-07-24T11:16:35;19.60;;;18.10;;
14187;SDS011;7175;51.978;5.330;2022-07-24T11:22:05;19.40;;;17.80;;
14187;SDS011;7175;51.978;5.330;2022-07-24T11:24:41;18.87;;;17.47;;
14187;SDS011;7175;51.978;5.330;2022-07-24T11:27:28;19.77;;;18.27;;
14187;SDS011;7175;51.978;5.330;2022-07-24T11:33:10;18.20;;;16.80;;
14187;SDS011;7175;51.978;5.330;2022-07-24T11:35:49;18.80;;;17.40;;
14187;SDS011;7175;51.978;5.330;2022-07-24T11:38:27;18.43;;;17.03;;
14187;SDS011;7175;51.978;5.330;2022-07-24T11:44:21;18.80;;;17.40;;
14187;SDS011;7175;51.978;5.330;2022-07-24T11:47:05;18.70;;;17.30;;
14187;SDS011;7175;51.978;5.330;2022-07-24T11:52:17;18.93;;;17.43;;
14187;SDS011;7175;51.978;5.330;2022-07-24T11:57:44;19.40;;;17.90;;
14187;SDS011;7175;51.978;5.330;2022-07-24T12:00:36;19.10;;;17.60;;
14187;SDS011;7175;51.978;5.330;2022-07-24T12:03:16;18.77;;;17.27;;
14187;SDS011;7175;51.978;5.330;2022-07-24T12:05:50;19.37;;;17.87;;
14187;SDS011;7175;51.978;5.330;2022-07-24T12:14:25;18.83;;;17.33;;
14187;SDS011;7175;51.978;5.330;2022-07-24T12:16:58;18.80;;;17.30;;
14187;SDS011;7175;51.978;5.330;2022-07-24T12:19:28;18.90;;;17.40;;
14187;SDS011;7175;51.978;5.330;2022-07-24T12:22:01;19.17;;;17.67;;
14187;SDS011;7175;51.978;5.330;2022-07-24T12:27:34;18.77;;;17.27;;
14187;SDS011;7175;51.978;5.330;2022-07-24T12:30:15;18.77;;;17.27;;
14187;SDS011;7175;51.978;5.330;2022-07-24T12:36:13;18.90;;;17.40;;
14187;SDS011;7175;51.978;5.330;2022-07-24T12:38:50;19.00;;;17.50;;
14187;SDS011;7175;51.978;5.330;2022-07-24T12:41:22;18.47;;;17.07;;
14187;SDS011;7175;51.978;5.330;2022-07-24T12:43:54;18.33;;;16.93;;
14187;SDS011;7175;51.978;5.330;2022-07-24T12:46:34;19.17;;;17.57;;
14187;SDS011;7175;51.978;5.330;2022-07-24T12:49:07;18.47;;;17.07;;
14187;SDS011;7175;51.978;5.330;2022-07-24T12:51:56;18.43;;;17.00;;
14187;SDS011;7175;51.978;5.330;2022-07-24T12:54:27;18.47;;;17.07;;
14187;SDS011;7175;51.978;5.330;2022-07-24T12:57:02;20.13;;;18.20;;
14187;SDS011;7175;51.978;5.330;2022-07-24T12:59:58;21.40;;;18.73;;
14187;SDS011;7175;51.978;5.330;2022-07-24T13:02:38;19.00;;;17.50;;
14187;SDS011;7175;51.978;5.330;2022-07-24T13:08:54;19.70;;;18.10;;
14187;SDS011;7175;51.978;5.330;2022-07-24T13:11:46;19.10;;;17.60;;
14187;SDS011;7175;51.978;5.330;2022-07-24T13:14:19;18.93;;;17.43;;
14187;SDS011;7175;51.978;5.330;2022-07-24T13:16:54;18.90;;;17.40;;
14187;SDS011;7175;51.978;5.330;2022-07-24T13:19:47;19.20;;;17.70;;
14187;SDS011;7175;51.978;5.330;2022-07-24T13:22:29;18.87;;;17.37;;
14187;SDS011;7175;51.978;5.330;2022-07-24T13:25:05;18.43;;;16.93;;
14187;SDS011;7175;51.978;5.330;2022-07-24T13:27:40;18.67;;;17.17;;
14187;SDS011;7175;51.978;5.330;2022-07-24T13:30:37;18.80;;;17.30;;
14187;SDS011;7175;51.978;5.330;2022-07-24T13:33:10;18.93;;;17.43;;
14187;SDS011;7175;51.978;5.330;2022-07-24T13:35:40;18.60;;;17.10;;
14187;SDS011;7175;51.978;5.330;2022-07-24T13:38:10;18.73;;;17.23;;
14187;SDS011;7175;51.978;5.330;2022-07-24T13:40:46;18.70;;;17.20;;
14187;SDS011;7175;51.978;5.330;2022-07-24T13:43:16;19.07;;;17.57;;
14187;SDS011;7175;51.978;5.330;2022-07-24T13:45:48;18.53;;;17.07;;
14187;SDS011;7175;51.978;5.330;2022-07-24T13:48:20;18.80;;;17.30;;
14187;SDS011;7175;51.978;5.330;2022-07-24T13:50:50;18.93;;;17.43;;
14187;SDS011;7175;51.978;5.330;2022-07-24T13:53:37;19.40;;;17.80;;
14187;SDS011;7175;51.978;5.330;2022-07-24T13:56:11;19.37;;;17.77;;
14187;SDS011;7175;51.978;5.330;2022-07-24T13:58:44;19.40;;;17.80;;
14187;SDS011;7175;51.978;5.330;2022-07-24T14:01:14;19.63;;;18.03;;
14187;SDS011;7175;51.978;5.330;2022-07-24T14:04:00;19.50;;;17.90;;
14187;SDS011;7175;51.978;5.330;2022-07-24T14:06:51;19.33;;;17.73;;
14187;SDS011;7175;51.978;5.330;2022-07-24T14:09:21;18.83;;;17.33;;
14187;SDS011;7175;51.978;5.330;2022-07-24T14:14:51;19.07;;;17.57;;
14187;SDS011;7175;51.978;5.330;2022-07-24T14:17:30;19.30;;;17.70;;
14187;SDS011;7175;51.978;5.330;2022-07-24T14:20:06;19.47;;;17.87;;
14187;SDS011;7175;51.978;5.330;2022-07-24T14:22:38;19.27;;;17.67;;
14187;SDS011;7175;51.978;5.330;2022-07-24T14:25:10;18.83;;;17.33;;
14187;SDS011;7175;51.978;5.330;2022-07-24T14:27:59;19.33;;;17.73;;
14187;SDS011;7175;51.978;5.330;2022-07-24T14:30:30;19.00;;;17.50;;
14187;SDS011;7175;51.978;5.330;2022-07-24T14:33:07;19.03;;;17.53;;
14187;SDS011;7175;51.978;5.330;2022-07-24T14:35:40;19.10;;;17.60;;
14187;SDS011;7175;51.978;5.330;2022-07-24T14:38:11;19.03;;;17.47;;
14187;SDS011;7175;51.978;5.330;2022-07-24T14:40:45;19.10;;;17.50;;
14187;SDS011;7175;51.978;5.330;2022-07-24T14:43:43;19.10;;;17.60;;
14187;SDS011;7175;51.978;5.330;2022-07-24T14:46:13;18.80;;;17.30;;
14187;SDS011;7175;51.978;5.330;2022-07-24T14:48:45;18.70;;;17.20;;
14187;SDS011;7175;51.978;5.330;2022-07-24T14:51:21;18.77;;;17.27;;
14187;SDS011;7175;51.978;5.330;2022-07-24T14:53:53;18.63;;;17.13;;
14187;SDS011;7175;51.978;5.330;2022-07-24T14:56:38;18.43;;;16.97;;
14187;SDS011;7175;51.978;5.330;2022-07-24T14:59:11;19.17;;;17.67;;
14187;SDS011;7175;51.978;5.330;2022-07-24T15:01:49;18.87;;;17.37;;
14187;SDS011;7175;51.978;5.330;2022-07-24T15:04:30;18.90;;;17.40;;
14187;SDS011;7175;51.978;5.330;2022-07-24T15:07:05;18.63;;;17.13;;
14187;SDS011;7175;51.978;5.330;2022-07-24T15:09:45;19.23;;;17.63;;
14187;SDS011;7175;51.978;5.330;2022-07-24T15:12:21;18.90;;;17.40;;
14187;SDS011;7175;51.978;5.330;2022-07-24T15:14:54;18.47;;;16.97;;
14187;SDS011;7175;51.978;5.330;2022-07-24T15:17:33;19.00;;;17.50;;
14187;SDS011;7175;51.978;5.330;2022-07-24T15:20:07;18.67;;;17.17;;
14187;SDS011;7175;51.978;5.330;2022-07-24T15:22:39;18.50;;;17.00;;
14187;SDS011;7175;51.978;5.330;2022-07-24T15:25:18;18.27;;;16.77;;
14187;SDS011;7175;51.978;5.330;2022-07-24T15:27:48;18.60;;;17.10;;
14187;SDS011;7175;51.978;5.330;2022-07-24T15:30:28;18.40;;;16.90;;
14187;SDS011;7175;51.978;5.330;2022-07-24T15:32:58;18.70;;;17.10;;
14187;SDS011;7175;51.978;5.330;2022-07-24T15:35:32;18.57;;;17.07;;
14187;SDS011;7175;51.978;5.330;2022-07-24T15:38:09;17.80;;;16.40;;
14187;SDS011;7175;51.978;5.330;2022-07-24T15:40:46;18.77;;;17.27;;
14187;SDS011;7175;51.978;5.330;2022-07-24T15:43:16;19.00;;;17.50;;
14187;SDS011;7175;51.978;5.330;2022-07-24T15:46:01;18.43;;;17.03;;
14187;SDS011;7175;51.978;5.330;2022-07-24T15:48:36;18.77;;;17.27;;
14187;SDS011;7175;51.978;5.330;2022-07-24T15:51:10;18.70;;;17.20;;
14187;SDS011;7175;51.978;5.330;2022-07-24T15:53:40;19.10;;;17.60;;
14187;SDS011;7175;51.978;5.330;2022-07-24T15:56:14;19.80;;;18.20;;
14187;SDS011;7175;51.978;5.330;2022-07-24T15:58:44;19.60;;;17.90;;
14187;SDS011;7175;51.978;5.330;2022-07-24T16:01:27;18.47;;;17.07;;
14187;SDS011;7175;51.978;5.330;2022-07-24T16:04:16;19.40;;;17.90;;
14187;SDS011;7175;51.978;5.330;2022-07-24T16:06:48;18.43;;;17.00;;
14187;SDS011;7175;51.978;5.330;2022-07-24T16:09:17;18.27;;;16.87;;
14187;SDS011;7175;51.978;5.330;2022-07-24T16:11:47;19.10;;;17.50;;
14187;SDS011;7175;51.978;5.330;2022-07-24T16:14:21;19.53;;;17.93;;
14187;SDS011;7175;51.978;5.330;2022-07-24T16:16:58;18.70;;;17.20;;
14187;SDS011;7175;51.978;5.330;2022-07-24T16:19:28;18.67;;;17.20;;
14187;SDS011;7175;51.978;5.330;2022-07-24T16:21:58;18.70;;;17.20;;
14187;SDS011;7175;51.978;5.330;2022-07-24T16:24:29;18.90;;;17.40;;
14187;SDS011;7175;51.978;5.330;2022-07-24T16:27:03;18.20;;;16.80;;
14187;SDS011;7175;51.978;5.330;2022-07-24T16:29:33;18.00;;;16.60;;
14187;SDS011;7175;51.978;5.330;2022-07-24T16:32:12;18.50;;;17.10;;
14187;SDS011;7175;51.978;5.330;2022-07-24T16:34:49;17.87;;;16.47;;
14187;SDS011;7175;51.978;5.330;2022-07-24T16:37:25;18.43;;;17.03;;
14187;SDS011;7175;51.978;5.330;2022-07-24T16:39:55;17.73;;;16.33;;
14187;SDS011;7175;51.978;5.330;2022-07-24T16:42:40;17.57;;;16.27;;
14187;SDS011;7175;51.978;5.330;2022-07-24T16:45:15;17.70;;;16.40;;
14187;SDS011;7175;51.978;5.330;2022-07-24T16:48:17;17.50;;;16.20;;
14187;SDS011;7175;51.978;5.330;2022-07-24T16:50:49;17.23;;;16.00;;
14187;SDS011;7175;51.978;5.330;2022-07-24T16:53:20;17.63;;;16.37;;
14187;SDS011;7175;51.978;5.330;2022-07-24T16:56:03;17.37;;;16.17;;
14187;SDS011;7175;51.978;5.330;2022-07-24T16:58:37;17.93;;;16.53;;
14187;SDS011;7175;51.978;5.330;2022-07-24T17:01:12;17.53;;;16.23;;
14187;SDS011;7175;51.978;5.330;2022-07-24T17:03:48;17.50;;;16.20;;
14187;SDS011;7175;51.978;5.330;2022-07-24T17:06:19;17.70;;;16.40;;
14187;SDS011;7175;51.978;5.330;2022-07-24T17:08:55;17.80;;;16.50;;
14187;SDS011;7175;51.978;5.330;2022-07-24T17:11:29;17.80;;;16.50;;
14187;SDS011;7175;51.978;5.330;2022-07-24T17:14:09;17.93;;;16.63;;
14187;SDS011;7175;51.978;5.330;2022-07-24T17:16:40;17.67;;;16.37;;
14187;SDS011;7175;51.978;5.330;2022-07-24T17:19:13;17.67;;;16.37;;
14187;SDS011;7175;51.978;5.330;2022-07-24T17:21:56;17.67;;;16.33;;
14187;SDS011;7175;51.978;5.330;2022-07-24T17:24:28;17.27;;;15.97;;
14187;SDS011;7175;51.978;5.330;2022-07-24T17:27:03;17.37;;;16.07;;
14187;SDS011;7175;51.978;5.330;2022-07-24T17:29:35;17.37;;;16.07;;
14187;SDS011;7175;51.978;5.330;2022-07-24T17:32:21;17.90;;;16.60;;
14187;SDS011;7175;51.978;5.330;2022-07-24T17:34:59;17.60;;;16.30;;
14187;SDS011;7175;51.978;5.330;2022-07-24T17:37:35;18.00;;;16.70;;
14187;SDS011;7175;51.978;5.330;2022-07-24T17:42:58;18.20;;;16.90;;
14187;SDS011;7175;51.978;5.330;2022-07-24T17:45:30;18.10;;;16.80;;
14187;SDS011;7175;51.978;5.330;2022-07-24T17:48:03;18.00;;;16.70;;
14187;SDS011;7175;51.978;5.330;2022-07-24T17:50:35;18.90;;;17.30;;
14187;SDS011;7175;51.978;5.330;2022-07-24T17:53:06;18.80;;;17.40;;
14187;SDS011;7175;51.978;5.330;2022-07-24T17:55:59;18.77;;;17.37;;
14187;SDS011;7175;51.978;5.330;2022-07-24T17:58:42;18.47;;;17.07;;
14187;SDS011;7175;51.978;5.330;2022-07-24T18:01:21;18.40;;;17.00;;
14187;SDS011;7175;51.978;5.330;2022-07-24T18:04:01;18.03;;;16.73;;
14187;SDS011;7175;51.978;5.330;2022-07-24T18:07:04;18.40;;;17.00;;
14187;SDS011;7175;51.978;5.330;2022-07-24T18:09:43;17.90;;;16.60;;
14187;SDS011;7175;51.978;5.330;2022-07-24T18:12:14;18.17;;;16.87;;
14187;SDS011;7175;51.978;5.330;2022-07-24T18:14:46;18.80;;;17.40;;
14187;SDS011;7175;51.978;5.330;2022-07-24T18:17:23;18.00;;;16.70;;
14187;SDS011;7175;51.978;5.330;2022-07-24T18:22:48;18.10;;;16.80;;
14187;SDS011;7175;51.978;5.330;2022-07-24T18:25:23;18.47;;;17.07;;
14187;SDS011;7175;51.978;5.330;2022-07-24T18:27:53;17.90;;;16.60;;
14187;SDS011;7175;51.978;5.330;2022-07-24T18:30:25;18.07;;;16.77;;
14187;SDS011;7175;51.978;5.330;2022-07-24T18:32:56;18.00;;;16.70;;
14187;SDS011;7175;51.978;5.330;2022-07-24T18:35:36;17.57;;;16.27;;
14187;SDS011;7175;51.978;5.330;2022-07-24T18:40:57;17.60;;;16.40;;
14187;SDS011;7175;51.978;5.330;2022-07-24T18:43:35;17.33;;;16.13;;
14187;SDS011;7175;51.978;5.330;2022-07-24T18:46:06;18.00;;;16.70;;
14187;SDS011;7175;51.978;5.330;2022-07-24T18:48:54;17.47;;;16.27;;
14187;SDS011;7175;51.978;5.330;2022-07-24T18:51:27;18.23;;;16.83;;
14187;SDS011;7175;51.978;5.330;2022-07-24T18:53:59;18.33;;;17.03;;
14187;SDS011;7175;51.978;5.330;2022-07-24T18:56:42;17.90;;;16.60;;
14187;SDS011;7175;51.978;5.330;2022-07-24T18:59:17;18.83;;;17.30;;
14187;SDS011;7175;51.978;5.330;2022-07-24T19:01:58;17.93;;;16.63;;
14187;SDS011;7175;51.978;5.330;2022-07-24T19:04:34;17.40;;;16.20;;
14187;SDS011;7175;51.978;5.330;2022-07-24T19:07:06;17.47;;;16.27;;
14187;SDS011;7175;51.978;5.330;2022-07-24T19:09:44;17.37;;;16.17;;
14187;SDS011;7175;51.978;5.330;2022-07-24T19:12:42;17.40;;;16.20;;
14187;SDS011;7175;51.978;5.330;2022-07-24T19:15:32;17.90;;;16.60;;
14187;SDS011;7175;51.978;5.330;2022-07-24T19:18:16;17.60;;;16.40;;
14187;SDS011;7175;51.978;5.330;2022-07-24T19:20:48;17.20;;;16.00;;
14187;SDS011;7175;51.978;5.330;2022-07-24T19:23:33;17.60;;;16.30;;
14187;SDS011;7175;51.978;5.330;2022-07-24T19:26:23;17.20;;;16.00;;
14187;SDS011;7175;51.978;5.330;2022-07-24T19:29:09;17.50;;;16.20;;
14187;SDS011;7175;51.978;5.330;2022-07-24T19:31:49;17.90;;;16.40;;
14187;SDS011;7175;51.978;5.330;2022-07-24T19:34:50;17.70;;;16.50;;
14187;SDS011;7175;51.978;5.330;2022-07-24T19:37:23;17.73;;;16.53;;
14187;SDS011;7175;51.978;5.330;2022-07-24T19:43:00;19.30;;;17.90;;
14187;SDS011;7175;51.978;5.330;2022-07-24T19:45:38;20.17;;;18.37;;
14187;SDS011;7175;51.978;5.330;2022-07-24T19:48:10;17.67;;;16.47;;
14187;SDS011;7175;51.978;5.330;2022-07-24T19:50:45;18.00;;;16.70;;
14187;SDS011;7175;51.978;5.330;2022-07-24T19:53:41;18.00;;;16.70;;
14187;SDS011;7175;51.978;5.330;2022-07-24T19:56:33;18.30;;;16.80;;
14187;SDS011;7175;51.978;5.330;2022-07-24T19:59:09;17.50;;;16.30;;
14187;SDS011;7175;51.978;5.330;2022-07-24T20:04:35;17.07;;;15.87;;
14187;SDS011;7175;51.978;5.330;2022-07-24T20:07:11;17.27;;;16.07;;
14187;SDS011;7175;51.978;5.330;2022-07-24T20:12:59;16.80;;;15.60;;
14187;SDS011;7175;51.978;5.330;2022-07-24T20:23:40;19.00;;;17.60;;
14187;SDS011;7175;51.978;5.330;2022-07-24T20:26:40;18.13;;;16.83;;
14187;SDS011;7175;51.978;5.330;2022-07-24T20:29:20;19.20;;;17.80;;
14187;SDS011;7175;51.978;5.330;2022-07-24T20:32:06;18.87;;;17.47;;
14187;SDS011;7175;51.978;5.330;2022-07-24T20:34:39;18.63;;;17.23;;
14187;SDS011;7175;51.978;5.330;2022-07-24T20:37:28;18.93;;;17.53;;
14187;SDS011;7175;51.978;5.330;2022-07-24T20:40:34;17.83;;;16.60;;
14187;SDS011;7175;51.978;5.330;2022-07-24T20:43:20;18.90;;;17.50;;
14187;SDS011;7175;51.978;5.330;2022-07-24T20:46:15;18.37;;;17.07;;
14187;SDS011;7175;51.978;5.330;2022-07-24T20:49:06;18.10;;;16.90;;
14187;SDS011;7175;51.978;5.330;2022-07-24T20:52:00;17.80;;;16.60;;
14187;SDS011;7175;51.978;5.330;2022-07-24T20:54:39;18.27;;;16.97;;
14187;SDS011;7175;51.978;5.330;2022-07-24T20:57:15;19.10;;;17.80;;
14187;SDS011;7175;51.978;5.330;2022-07-24T21:02:30;18.70;;;17.40;;
14187;SDS011;7175;51.978;5.330;2022-07-24T21:05:05;17.80;;;16.60;;
14187;SDS011;7175;51.978;5.330;2022-07-24T21:07:41;18.50;;;17.20;;
14187;SDS011;7175;51.978;5.330;2022-07-24T21:10:15;18.00;;;16.70;;
14187;SDS011;7175;51.978;5.330;2022-07-24T21:12:59;18.40;;;17.10;;
14187;SDS011;7175;51.978;5.330;2022-07-24T21:15:40;19.03;;;17.50;;
14187;SDS011;7175;51.978;5.330;2022-07-24T21:18:27;18.17;;;16.93;;
14187;SDS011;7175;51.978;5.330;2022-07-24T21:21:00;18.30;;;17.00;;
14187;SDS011;7175;51.978;5.330;2022-07-24T21:23:54;18.80;;;17.50;;
14187;SDS011;7175;51.978;5.330;2022-07-24T21:26:30;18.60;;;17.30;;